Cut Bank Municipal Airport Cut Bank US
ICAO: KCTB
IATA: CTB
Category: Medium
Scheduled Services: No

Elevation: 3854 ft
TransAlt. 18000 ft.

Airport Communications:
SALT LAKE CITY CNTR:133.4
ASOS:119.025
GREAT FALLS RDO:122.2
CTAF/UNICOM:122.8

KCTB Zoom In..

If you have problems with the map follow the link
https://www.worldairports.se/pages/airport.php?
ICAO=KCTB

Runways:

(A) RW 05 length 5302 ft width 75 ft
---- / hdg 47

(B) RW 13 length 5300 ft width 75 ft
---- / hdg 135

(C) RW 23 length 5302 ft width 75 ft
---- / hdg 227

(D) RW 31 length 5300 ft width 75 ft
---- / hdg 315

Location; KCTB
Day. 28 / Time. 12.56 Zulu
* Altimeter: 29.90
* Temperature: -02° c. -28.4°f.
* Wind from: 230° Speed 08 kn.
Dewpoint: -09° c.
Visibility: 10 Statute Miles.
Clouds: Clear (automated report).

KCTB 281256Z AUTO 23008KT 10SM CLR M02/M09 A2990 RMK AO2 SLP155 T10171089


Wind From 230°
Speed 08 kn.

 
 
jpsmedia worldairports.se 2020   terms of use